Beasley, TX (77417)

3:29 PM CDT on August 27, 2014 (GMT -0500)
Melvin Court | Change Station
CLOSE
Current Station
Personal Weather Station
Location: Needville, TX
Elevation: 88 ft
Nearby Weather Stations

Elev 88 ft 29.39 °N, 95.84 °W | Updated 5 minutes ago

Overcast
Overcast
86.4 °F
Feels Like 97 °F
N
3.2
Wind Variable Wind from WNW

Today
High -- | Low -- °F
--% Chance of Precip.
Yesterday
High -- | Low -- °F
Precip. -- in
6:58 AM 7:51 PM
Waxing Crescent, 5% visible
Pressure 29.97 in
Visibility 4.0 miles
Clouds Scattered Clouds 1000 ft
Scattered Clouds 1600 ft
Mostly Cloudy 5500 ft
Heat Index 97 °F
Dew Point 77 °F
Humidity 73%
Rainfall 0.00 in
Snow Depth Not available.
UV 5 out of 12
Pollen 6.10 out of 12
Ozone Moderate
PM2.5 Moderate
Flu Activity Not available.
METAR KARM 272015Z AUTO 02008G15KT 4SM RA SCT010 SCT016 BKN055 26/23 A2997 RMK AO2 LTG DSNT E P0003 T02590229

More Conditions Fewer Conditions

Pressure 29.97 in
Visibility 4.0 miles
Clouds Scattered Clouds 1000 ft
Scattered Clouds 1600 ft
Mostly Cloudy 5500 ft
Heat Index 97 °F
Dew Point 77 °F
Humidity 73%
Rainfall 0.00 in
Snow Depth Not available.
UV 5 out of 12
Pollen 6.10 out of 12
Ozone Moderate
PM2.5 Moderate
Flu Activity Not available.
METAR KARM 272015Z AUTO 02008G15KT 4SM RA SCT010 SCT016 BKN055 26/23 A2997 RMK AO2 LTG DSNT E P0003 T02590229

More Conditions Fewer Conditions

10-Day Weather Forecast

Almanac

Astronomy

Aug. 27, 2014 Rise Set
Actual Time 6:58 AM CDT 7:51 PM CDT
Civil Twilight 6:34 AM CDT 8:15 PM CDT
Nautical Twilight 6:05 AM CDT 8:44 PM CDT
Astronomical Twilight 5:35 AM CDT 9:14 PM CDT
Moon 8:43 AM CDT 8:58 PM CDT
Length of Visible Light 13h 41m
Length of Day
12h 52m
Tomorrow will be 1m 40s shorter.
Waxing Crescent, 5% of the Moon is Illuminated
Today
Waxing Crescent
Sep 2
First Quarter
Sep 8
Full
Sep 15
Last Quarter
Sep 24
New

Today's Extremes

State Highs State Lows

Community

WunderPhotos

Upload Photos

1,747,781 photos uploaded!

Nearby

Air Quality

  Air Quality AQ Index Pollutant
Yesterday Moderate
OZONE
Yesterday Moderate
PM2.5
Current Moderate
OZONE
Current Moderate
PM2.5
Wednesday Moderate
OZONE
Wednesday Good
PM10
Thursday Good
OZONE
Thursday Good
PM10
Friday Good
OZONE
Friday Good
PM10
Saturday Good
OZONE
Saturday Good
PM10

Snow Depth

Station Depth Elevation
No new snow has been reported.

Earthquake Activity

City Distance Mag. Time & Date
No recent earthquake activity has been reported nearby.
Minimum magnitude displayed is 2.5.

Coastal Water Temperatures

Place Temperature
No Stations Reporting

Nearby Weather Stations